createdAt,value
2023-03-25T00:01:32.962Z,95651.97
2023-03-25T00:04:01.079Z,95644.59
2023-03-25T00:06:28.114Z,95642.38
2023-03-25T00:08:55.082Z,95647.22
2023-03-25T00:11:21.572Z,95657.97
2023-03-25T00:13:50.967Z,95654.56
2023-03-25T00:16:19.168Z,95649.38
2023-03-25T00:18:47.984Z,95642.31
2023-03-25T00:21:14.580Z,95641.25
2023-03-25T00:23:41.606Z,95640.25
2023-03-25T00:26:08.111Z,95652.06
2023-03-25T00:28:35.209Z,95630.31
2023-03-25T00:31:02.555Z,95637.19
2023-03-25T00:33:29.218Z,95641.22
2023-03-25T00:35:59.467Z,95642.19
2023-03-25T00:38:33.517Z,95641.84
2023-03-25T00:41:08.284Z,95650.63
2023-03-25T00:43:34.764Z,95645.00
2023-03-25T00:46:04.059Z,95643.53
2023-03-25T00:48:30.568Z,95647.13
2023-03-25T00:50:57.075Z,95649.72
2023-03-25T00:53:23.750Z,95651.09
2023-03-25T00:55:51.130Z,95648.84
2023-03-25T00:58:17.941Z,95642.03
2023-03-25T01:00:44.537Z,95646.25
2023-03-25T01:03:12.800Z,95636.84
2023-03-25T01:05:41.662Z,95629.69
2023-03-25T01:08:08.626Z,95618.50
2023-03-25T01:10:36.039Z,95619.28
2023-03-25T01:13:02.650Z,95618.31
2023-03-25T01:15:29.081Z,95624.50
2023-03-25T01:17:55.791Z,95630.13
2023-03-25T01:20:22.349Z,95631.13
2023-03-25T01:22:48.778Z,95628.69
2023-03-25T01:25:15.395Z,95633.72
2023-03-25T01:27:42.052Z,95640.72
2023-03-25T01:30:09.045Z,95643.31
2023-03-25T01:32:35.677Z,95647.31
2023-03-25T01:35:02.196Z,95639.34
2023-03-25T01:37:29.554Z,95641.59
2023-03-25T01:39:56.195Z,95645.78
2023-03-25T01:42:22.773Z,95628.53
2023-03-25T01:44:52.254Z,95624.06
2023-03-25T01:47:18.664Z,95623.34
2023-03-25T01:49:45.572Z,95627.03
2023-03-25T01:52:11.988Z,95620.75
2023-03-25T01:54:38.887Z,95631.47
2023-03-25T01:57:06.293Z,95645.25
2023-03-25T01:59:32.764Z,95635.06
2023-03-25T02:02:01.653Z,95642.47
2023-03-25T02:04:34.949Z,95654.22
2023-03-25T02:07:01.425Z,95651.81
2023-03-25T02:09:27.906Z,95650.19
2023-03-25T02:11:54.977Z,95659.94
2023-03-25T02:14:22.607Z,95666.31
2023-03-25T02:16:51.049Z,95671.50
2023-03-25T02:19:23.594Z,95667.91
2023-03-25T02:21:56.720Z,95675.03
2023-03-25T02:24:29.912Z,95670.66
2023-03-25T02:27:03.744Z,95675.22
2023-03-25T02:29:34.077Z,95662.44
2023-03-25T02:32:19.398Z,95671.03
2023-03-25T02:34:51.624Z,95663.84
2023-03-25T02:37:21.254Z,95671.03
2023-03-25T02:39:49.233Z,95662.63
2023-03-25T02:42:18.654Z,95651.78
2023-03-25T02:45:01.633Z,95653.91
2023-03-25T02:47:30.401Z,95647.31
2023-03-25T02:49:58.266Z,95656.25
2023-03-25T02:52:28.798Z,95654.81
2023-03-25T02:54:58.199Z,95646.03
2023-03-25T02:57:25.539Z,95647.81
2023-03-25T02:59:54.130Z,95647.41
2023-03-25T03:02:21.018Z,95645.19
2023-03-25T03:04:48.243Z,95658.28
2023-03-25T03:07:17.001Z,95656.69
2023-03-25T03:09:45.789Z,95668.06
2023-03-25T03:12:17.822Z,95666.63
2023-03-25T03:14:44.291Z,95667.84
2023-03-25T03:17:18.400Z,95665.16
2023-03-25T03:19:52.395Z,95665.88
2023-03-25T03:22:35.518Z,95667.16
2023-03-25T03:25:03.286Z,95662.31
2023-03-25T03:28:05.369Z,95667.06
2023-03-25T03:30:52.216Z,95664.78
2023-03-25T03:33:21.909Z,95675.34
2023-03-25T03:35:57.525Z,95674.88
2023-03-25T03:38:28.167Z,95676.03
2023-03-25T03:40:55.878Z,95670.56
2023-03-25T03:43:33.230Z,95670.09
2023-03-25T03:46:01.111Z,95670.44
2023-03-25T03:48:54.073Z,95667.38
2023-03-25T03:51:22.890Z,95668.72
2023-03-25T03:53:53.447Z,95680.41
2023-03-25T03:56:22.156Z,95673.94
2023-03-25T03:58:48.634Z,95678.50
2023-03-25T04:01:33.964Z,95671.72
2023-03-25T04:04:01.603Z,95668.03
2023-03-25T04:06:30.761Z,95682.09
2023-03-25T04:09:00.839Z,95689.06
2023-03-25T04:11:28.257Z,95690.84
2023-03-25T04:13:54.761Z,95693.44
2023-03-25T04:16:21.776Z,95692.81
2023-03-25T04:18:48.218Z,95686.34
2023-03-25T04:21:15.414Z,95688.66
2023-03-25T04:23:41.868Z,95690.78
2023-03-25T04:26:08.338Z,95701.63
2023-03-25T04:28:36.809Z,95704.91
2023-03-25T04:31:07.540Z,95711.75
2023-03-25T04:33:35.991Z,95712.56
2023-03-25T04:36:03.661Z,95700.94
2023-03-25T04:38:30.585Z,95713.56
2023-03-25T04:40:58.285Z,95707.91
2023-03-25T04:43:24.799Z,95701.13
2023-03-25T04:45:55.023Z,95697.91
2023-03-25T04:48:26.251Z,95698.72
2023-03-25T04:50:52.766Z,95707.91
2023-03-25T04:53:19.245Z,95706.94
2023-03-25T04:55:49.578Z,95707.09
2023-03-25T04:58:16.276Z,95712.28
2023-03-25T05:00:43.175Z,95714.06
2023-03-25T05:03:09.835Z,95721.47
2023-03-25T05:05:36.421Z,95720.34
2023-03-25T05:08:03.249Z,95718.09
2023-03-25T05:10:29.810Z,95713.53
2023-03-25T05:13:00.326Z,95712.41
2023-03-25T05:15:26.888Z,95714.31
2023-03-25T05:17:53.598Z,95722.53
2023-03-25T05:20:20.101Z,95726.25
2023-03-25T05:22:46.595Z,95724.94
2023-03-25T05:25:13.095Z,95735.75
2023-03-25T05:27:39.560Z,95735.91
2023-03-25T05:30:06.839Z,95744.13
2023-03-25T05:32:33.450Z,95743.63
2023-03-25T05:35:00.415Z,95740.69
2023-03-25T05:37:27.020Z,95759.31
2023-03-25T05:39:53.457Z,95748.75
2023-03-25T05:42:23.204Z,95758.31
2023-03-25T05:44:53.294Z,95754.13
2023-03-25T05:47:21.934Z,95765.28
2023-03-25T05:49:48.891Z,95757.00
2023-03-25T05:52:17.047Z,95760.88
2023-03-25T05:54:46.690Z,95753.41
2023-03-25T05:57:13.310Z,95762.25
2023-03-25T05:59:40.832Z,95765.81
2023-03-25T06:02:08.643Z,95761.56
2023-03-25T06:04:38.047Z,95755.50
2023-03-25T06:07:14.037Z,95751.09
2023-03-25T06:09:46.909Z,95747.94
2023-03-25T06:12:13.998Z,95745.13
2023-03-25T06:14:43.069Z,95736.66
2023-03-25T06:17:10.913Z,95736.56
2023-03-25T06:19:39.375Z,95745.53
2023-03-25T06:22:06.830Z,95733.56
2023-03-25T06:24:33.292Z,95729.03
2023-03-25T06:26:59.952Z,95735.47
2023-03-25T06:29:26.477Z,95734.16
2023-03-25T06:31:52.981Z,95731.63
2023-03-25T06:34:19.810Z,95737.06
2023-03-25T06:36:50.177Z,95745.91
2023-03-25T06:39:17.122Z,95747.28
2023-03-25T06:41:43.576Z,95748.53
2023-03-25T06:44:10.669Z,95738.94
2023-03-25T06:46:37.147Z,95743.75
2023-03-25T06:49:03.658Z,95737.63
2023-03-25T06:51:30.218Z,95748.66
2023-03-25T06:53:56.740Z,95752.03
2023-03-25T06:56:24.781Z,95760.84
2023-03-25T06:58:51.218Z,95758.56
2023-03-25T07:01:17.722Z,95751.28
2023-03-25T07:03:44.264Z,95760.81
2023-03-25T07:06:14.491Z,95754.31
2023-03-25T07:08:41.055Z,95748.88
2023-03-25T07:11:07.764Z,95751.63
2023-03-25T07:13:34.496Z,95748.16
2023-03-25T07:16:01.279Z,95756.16
2023-03-25T07:18:27.754Z,95749.78
2023-03-25T07:20:54.171Z,95759.00
2023-03-25T07:23:20.692Z,95758.00
2023-03-25T07:25:47.247Z,95754.22
2023-03-25T07:28:14.250Z,95750.38
2023-03-25T07:30:40.958Z,95749.38
2023-03-25T07:33:07.591Z,95749.88
2023-03-25T07:35:34.162Z,95749.97
2023-03-25T07:38:01.048Z,95729.38
2023-03-25T07:40:27.614Z,95724.00
2023-03-25T07:42:54.056Z,95733.09
2023-03-25T07:45:20.654Z,95743.19
2023-03-25T07:47:50.482Z,95746.59
2023-03-25T07:50:18.016Z,95741.41
2023-03-25T07:52:44.521Z,95740.03
2023-03-25T07:55:11.103Z,95732.09
2023-03-25T07:57:38.025Z,95734.81
2023-03-25T08:00:06.126Z,95740.44
2023-03-25T08:02:32.667Z,95747.06
2023-03-25T08:05:00.823Z,95742.84
2023-03-25T08:07:28.499Z,95740.63
2023-03-25T08:09:55.117Z,95733.19
2023-03-25T08:12:21.573Z,95740.84
2023-03-25T08:14:48.074Z,95735.75
2023-03-25T08:17:14.513Z,95744.19
2023-03-25T08:19:41.159Z,95749.59
2023-03-25T08:22:07.678Z,95748.44
2023-03-25T08:24:34.180Z,95746.41
2023-03-25T08:27:13.944Z,95748.84
2023-03-25T08:29:43.065Z,95748.00
2023-03-25T08:32:09.593Z,95749.41
2023-03-25T08:34:40.142Z,95748.78
2023-03-25T08:37:10.249Z,95747.75
2023-03-25T08:39:40.203Z,95738.50
2023-03-25T08:42:07.365Z,95740.09
2023-03-25T08:44:33.881Z,95733.47
2023-03-25T08:47:00.404Z,95742.31
2023-03-25T08:49:26.971Z,95731.88
2023-03-25T08:51:53.593Z,95731.66
2023-03-25T08:54:20.113Z,95726.00
2023-03-25T08:56:46.629Z,95721.78
2023-03-25T08:59:13.666Z,95723.97
2023-03-25T09:01:41.385Z,95724.56
2023-03-25T09:04:07.877Z,95731.66
2023-03-25T09:06:47.660Z,95726.03
2023-03-25T09:09:20.867Z,95722.38
2023-03-25T09:11:47.340Z,95729.03
2023-03-25T09:14:13.854Z,95715.81
2023-03-25T09:16:41.027Z,95709.81
2023-03-25T09:19:08.219Z,95712.63
2023-03-25T09:21:34.671Z,95709.94
2023-03-25T09:24:01.252Z,95702.81
2023-03-25T09:26:28.187Z,95706.41
2023-03-25T09:28:56.377Z,95710.72
2023-03-25T09:31:23.475Z,95706.22
2023-03-25T09:33:50.140Z,95694.16
2023-03-25T09:36:16.603Z,95689.56
2023-03-25T09:38:43.079Z,95692.63
2023-03-25T09:41:23.989Z,95683.69
2023-03-25T09:44:09.096Z,95690.78
2023-03-25T09:46:37.114Z,95686.69
2023-03-25T09:49:03.577Z,95686.97
2023-03-25T09:51:30.795Z,95684.44
2023-03-25T09:53:57.331Z,95690.56
2023-03-25T09:56:24.684Z,95688.97
2023-03-25T09:59:01.398Z,95673.50
2023-03-25T10:01:44.356Z,95683.47
2023-03-25T10:04:20.005Z,95687.72
2023-03-25T10:06:49.322Z,95704.44
2023-03-25T10:09:25.312Z,95696.38
2023-03-25T10:12:11.054Z,95695.22
2023-03-25T10:14:46.715Z,95695.94
2023-03-25T10:17:30.721Z,95695.28
2023-03-25T10:20:00.758Z,95689.53
2023-03-25T10:22:28.895Z,95685.97
2023-03-25T10:24:56.830Z,95682.34
2023-03-25T10:27:53.083Z,95678.78
2023-03-25T10:30:49.010Z,95677.41
2023-03-25T10:33:23.764Z,95676.84
2023-03-25T10:35:50.460Z,95674.84
2023-03-25T10:38:24.397Z,95662.81
2023-03-25T10:40:53.116Z,95670.66
2023-03-25T10:43:27.352Z,95653.41
2023-03-25T10:46:14.149Z,95667.47
2023-03-25T10:48:40.857Z,95666.44
2023-03-25T10:51:08.673Z,95669.22
2023-03-25T10:53:35.625Z,95673.16
2023-03-25T10:56:02.299Z,95674.09
2023-03-25T10:58:28.809Z,95668.66
2023-03-25T11:00:55.315Z,95678.41
2023-03-25T11:03:32.466Z,95664.13
2023-03-25T11:05:58.968Z,95665.72
2023-03-25T11:08:25.791Z,95661.44
2023-03-25T11:10:57.265Z,95670.94
2023-03-25T11:13:24.893Z,95648.13
2023-03-25T11:15:52.735Z,95661.22
2023-03-25T11:18:24.819Z,95667.91
2023-03-25T11:21:01.618Z,95657.88
2023-03-25T11:23:37.715Z,95655.31
2023-03-25T11:26:17.145Z,95656.88
2023-03-25T11:28:47.990Z,95648.50
2023-03-25T11:31:18.677Z,95642.06
2023-03-25T11:33:46.145Z,95654.34
2023-03-25T11:36:13.846Z,95643.38
2023-03-25T11:38:40.300Z,95650.41
2023-03-25T11:41:10.019Z,95655.63
2023-03-25T11:43:37.264Z,95644.38
2023-03-25T11:46:10.652Z,95631.97
2023-03-25T11:48:38.562Z,95646.19
2023-03-25T11:51:05.934Z,95653.41
2023-03-25T11:53:32.535Z,95653.16
2023-03-25T11:56:04.571Z,95651.34
2023-03-25T11:58:33.242Z,95652.88
2023-03-25T12:01:04.372Z,95644.63
2023-03-25T12:03:31.924Z,95632.97
2023-03-25T12:06:05.983Z,95637.88
2023-03-25T12:08:48.819Z,95636.06
2023-03-25T12:11:25.000Z,95645.72
2023-03-25T12:13:59.656Z,95636.59
2023-03-25T12:16:44.886Z,95645.81
2023-03-25T12:19:14.471Z,95654.19
2023-03-25T12:21:59.765Z,95639.00
2023-03-25T12:24:38.587Z,95654.91
2023-03-25T12:27:14.270Z,95654.22
2023-03-25T12:29:43.118Z,95651.72
2023-03-25T12:32:09.580Z,95648.66
2023-03-25T12:34:39.878Z,95645.41
2023-03-25T12:37:25.349Z,95654.31
2023-03-25T12:39:54.852Z,95645.34
2023-03-25T12:42:27.813Z,95644.97
2023-03-25T12:45:00.138Z,95643.81
2023-03-25T12:47:36.945Z,95634.69
2023-03-25T12:50:10.140Z,95640.09
2023-03-25T12:52:42.063Z,95642.59
2023-03-25T12:55:25.673Z,95633.31
2023-03-25T12:58:11.210Z,95634.69
2023-03-25T13:00:41.878Z,95625.63
2023-03-25T13:03:23.706Z,95634.25
2023-03-25T13:05:52.605Z,95625.25
2023-03-25T13:08:28.357Z,95618.41
2023-03-25T13:11:02.924Z,95621.31
2023-03-25T13:13:29.548Z,95628.28
2023-03-25T13:16:01.234Z,95620.72
2023-03-25T13:18:28.722Z,95636.09
2023-03-25T13:21:13.347Z,95641.44
2023-03-25T13:23:41.277Z,95646.56
2023-03-25T13:26:09.035Z,95636.81
2023-03-25T13:28:38.616Z,95634.97
2023-03-25T13:31:06.292Z,95640.13
2023-03-25T13:33:33.518Z,95641.31
2023-03-25T13:36:25.342Z,95633.88
2023-03-25T13:38:59.305Z,95635.00
2023-03-25T13:41:41.572Z,95637.16
2023-03-25T13:44:08.387Z,95640.91
2023-03-25T13:46:43.275Z,95640.66
2023-03-25T13:49:15.752Z,95640.59
2023-03-25T13:51:42.280Z,95644.06
2023-03-25T13:54:11.274Z,95631.22
2023-03-25T13:56:57.469Z,95637.16
2023-03-25T13:59:26.147Z,95641.56
2023-03-25T14:01:58.876Z,95638.00
2023-03-25T14:04:29.136Z,95618.75
2023-03-25T14:07:12.037Z,95624.75
2023-03-25T14:09:48.184Z,95626.88
2023-03-25T14:12:15.536Z,95620.56
2023-03-25T14:14:44.086Z,95620.81
2023-03-25T14:17:11.905Z,95619.44
2023-03-25T14:19:39.056Z,95620.66
2023-03-25T14:22:16.637Z,95615.09
2023-03-25T14:24:43.132Z,95627.66
2023-03-25T14:27:18.061Z,95628.91
2023-03-25T14:29:52.871Z,95623.91
2023-03-25T14:32:19.334Z,95625.91
2023-03-25T14:34:47.231Z,95625.34
2023-03-25T14:37:26.249Z,95620.44
2023-03-25T14:39:53.538Z,95629.69
2023-03-25T14:42:23.895Z,95615.13
2023-03-25T14:44:54.516Z,95614.91
2023-03-25T14:47:32.102Z,95604.06
2023-03-25T14:50:06.507Z,95606.47
2023-03-25T14:52:33.096Z,95617.88
2023-03-25T14:55:01.688Z,95615.69
2023-03-25T14:57:31.061Z,95611.31
2023-03-25T15:00:01.534Z,95620.72
2023-03-25T15:02:28.961Z,95615.72
2023-03-25T15:04:57.074Z,95607.31
2023-03-25T15:07:39.128Z,95617.28
2023-03-25T15:10:06.094Z,95606.31
2023-03-25T15:12:32.559Z,95605.69
2023-03-25T15:15:24.736Z,95608.69
2023-03-25T15:17:51.227Z,95603.78
2023-03-25T15:20:23.679Z,95596.38
2023-03-25T15:23:08.974Z,95604.94
2023-03-25T15:25:35.403Z,95599.50
2023-03-25T15:28:05.002Z,95601.47
2023-03-25T15:30:31.504Z,95600.06
2023-03-25T15:33:36.811Z,95604.66
2023-03-25T15:36:10.841Z,95599.06
2023-03-25T15:38:37.567Z,95604.81
2023-03-25T15:41:09.245Z,95597.72
2023-03-25T15:43:44.801Z,95602.06
2023-03-25T15:46:37.346Z,95600.25
2023-03-25T15:49:16.305Z,95602.66
2023-03-25T15:51:55.001Z,95602.13
2023-03-25T15:54:33.357Z,95606.56
2023-03-25T15:57:02.827Z,95597.16
2023-03-25T15:59:38.753Z,95599.00
2023-03-25T16:02:08.514Z,95598.66
2023-03-25T16:04:38.921Z,95598.44
2023-03-25T16:07:05.725Z,95602.56
2023-03-25T16:09:32.359Z,95602.66
2023-03-25T16:11:59.682Z,95602.00
2023-03-25T16:14:32.002Z,95618.31
2023-03-25T16:16:58.938Z,95611.88
2023-03-25T16:19:47.737Z,95607.41
2023-03-25T16:22:32.918Z,95611.38
2023-03-25T16:25:03.442Z,95623.19
2023-03-25T16:27:30.792Z,95613.22
2023-03-25T16:29:57.493Z,95620.16
2023-03-25T16:32:25.693Z,95620.28
2023-03-25T16:34:53.997Z,95618.16
2023-03-25T16:37:20.972Z,95632.22
2023-03-25T16:39:51.483Z,95637.34
2023-03-25T16:42:38.350Z,95641.41
2023-03-25T16:45:05.080Z,95642.84
2023-03-25T16:47:31.973Z,95646.34
2023-03-25T16:49:58.420Z,95647.22
2023-03-25T16:52:28.635Z,95649.03
2023-03-25T16:54:55.040Z,95646.69
2023-03-25T16:57:25.223Z,95650.38
2023-03-25T16:59:52.323Z,95649.19
2023-03-25T17:02:42.420Z,95650.84
2023-03-25T17:05:13.046Z,95659.31
2023-03-25T17:07:39.654Z,95653.06
2023-03-25T17:10:13.382Z,95658.09
2023-03-25T17:12:40.009Z,95663.81
2023-03-25T17:15:09.357Z,95663.59
2023-03-25T17:17:43.751Z,95669.00
2023-03-25T17:20:18.025Z,95676.22
2023-03-25T17:22:55.378Z,95665.44
2023-03-25T17:25:32.488Z,95660.75
2023-03-25T17:28:06.353Z,95665.13
2023-03-25T17:30:42.885Z,95667.94
2023-03-25T17:33:19.581Z,95670.41
2023-03-25T17:35:48.852Z,95672.22
2023-03-25T17:38:19.847Z,95677.25
2023-03-25T17:40:46.394Z,95672.13
2023-03-25T17:43:17.447Z,95679.13
2023-03-25T17:45:45.377Z,95672.97
2023-03-25T17:48:14.677Z,95675.63
2023-03-25T17:50:42.354Z,95673.69
2023-03-25T17:53:08.978Z,95677.91
2023-03-25T17:55:37.206Z,95678.28
2023-03-25T17:58:04.089Z,95682.50
2023-03-25T18:00:33.187Z,95687.66
2023-03-25T18:03:06.183Z,95683.94
2023-03-25T18:05:32.917Z,95685.41
2023-03-25T18:08:00.072Z,95686.56
2023-03-25T18:10:26.638Z,95684.28
2023-03-25T18:12:53.077Z,95691.88
2023-03-25T18:15:19.591Z,95689.75
2023-03-25T18:17:46.251Z,95692.03
2023-03-25T18:20:23.598Z,95689.59
2023-03-25T18:22:55.885Z,95703.47
2023-03-25T18:25:22.680Z,95702.84
2023-03-25T18:27:50.217Z,95696.22
2023-03-25T18:30:24.861Z,95702.50
2023-03-25T18:32:51.425Z,95718.00
2023-03-25T18:35:18.119Z,95710.09
2023-03-25T18:37:44.981Z,95720.94
2023-03-25T18:40:18.758Z,95719.47
2023-03-25T18:42:45.321Z,95718.84
2023-03-25T18:45:12.388Z,95710.59
2023-03-25T18:47:38.912Z,95719.97
2023-03-25T18:50:32.529Z,95724.50
2023-03-25T18:52:59.309Z,95719.19
2023-03-25T18:55:27.033Z,95728.09
2023-03-25T18:57:53.865Z,95728.38
2023-03-25T19:00:28.671Z,95725.81
2023-03-25T19:02:55.453Z,95733.75
2023-03-25T19:05:22.497Z,95731.13
2023-03-25T19:07:49.544Z,95731.47
2023-03-25T19:10:19.138Z,95729.03
2023-03-25T19:12:46.238Z,95726.59
2023-03-25T19:15:13.800Z,95726.78
2023-03-25T19:17:40.524Z,95725.66
2023-03-25T19:20:07.641Z,95725.00
2023-03-25T19:22:34.148Z,95729.84
2023-03-25T19:25:00.701Z,95734.03
2023-03-25T19:27:27.140Z,95735.47
2023-03-25T19:29:54.460Z,95739.50
2023-03-25T19:32:21.716Z,95745.16
2023-03-25T19:34:51.441Z,95747.44
2023-03-25T19:37:18.714Z,95747.56
2023-03-25T19:39:45.236Z,95745.94
2023-03-25T19:42:12.035Z,95743.84
2023-03-25T19:44:38.630Z,95751.25
2023-03-25T19:47:05.311Z,95752.34
2023-03-25T19:49:39.710Z,95756.06
2023-03-25T19:52:07.074Z,95762.34
2023-03-25T19:54:33.521Z,95770.25
2023-03-25T19:57:00.017Z,95769.28
2023-03-25T19:59:26.921Z,95775.06
2023-03-25T20:01:53.398Z,95771.69
2023-03-25T20:04:20.268Z,95777.81
2023-03-25T20:06:46.737Z,95774.13
2023-03-25T20:09:13.894Z,95774.75
2023-03-25T20:11:40.323Z,95772.19
2023-03-25T20:14:07.059Z,95772.19
2023-03-25T20:16:34.976Z,95769.72
2023-03-25T20:19:01.555Z,95768.13
2023-03-25T20:21:28.068Z,95771.34
2023-03-25T20:23:54.588Z,95766.00
2023-03-25T20:26:21.145Z,95758.44
2023-03-25T20:28:49.438Z,95762.31
2023-03-25T20:31:18.508Z,95767.59
2023-03-25T20:33:45.369Z,95768.22
2023-03-25T20:36:11.910Z,95773.03
2023-03-25T20:38:41.929Z,95773.16
2023-03-25T20:41:13.863Z,95779.06
2023-03-25T20:43:40.491Z,95776.94
2023-03-25T20:46:07.286Z,95771.31
2023-03-25T20:48:33.848Z,95778.53
2023-03-25T20:51:06.895Z,95781.06
2023-03-25T20:53:33.483Z,95784.91
2023-03-25T20:56:00.662Z,95787.13
2023-03-25T20:58:27.578Z,95787.13
2023-03-25T21:00:56.197Z,95782.13
2023-03-25T21:03:24.272Z,95785.69
2023-03-25T21:05:51.848Z,95785.97
2023-03-25T21:08:18.570Z,95782.75
2023-03-25T21:10:46.511Z,95781.78
2023-03-25T21:13:13.593Z,95788.69
2023-03-25T21:15:40.197Z,95786.94
2023-03-25T21:18:06.749Z,95785.34
2023-03-25T21:20:33.835Z,95773.78
2023-03-25T21:23:01.229Z,95776.22
2023-03-25T21:25:35.253Z,95788.28
2023-03-25T21:28:02.256Z,95785.34
2023-03-25T21:30:28.760Z,95776.97
2023-03-25T21:32:55.384Z,95779.72
2023-03-25T21:35:22.469Z,95776.47
2023-03-25T21:37:49.093Z,95787.59
2023-03-25T21:40:15.756Z,95792.28
2023-03-25T21:42:42.480Z,95796.34
2023-03-25T21:45:13.648Z,95797.31
2023-03-25T21:47:40.316Z,95790.22
2023-03-25T21:50:07.815Z,95793.31
2023-03-25T21:52:34.255Z,95802.69
2023-03-25T21:55:00.823Z,95799.41
2023-03-25T21:57:27.378Z,95799.28
2023-03-25T21:59:55.279Z,95792.66
2023-03-25T22:02:21.983Z,95800.81
2023-03-25T22:04:49.026Z,95803.22
2023-03-25T22:07:15.774Z,95802.03
2023-03-25T22:09:42.232Z,95808.31
2023-03-25T22:12:08.683Z,95811.34
2023-03-25T22:14:35.492Z,95815.97
2023-03-25T22:17:02.043Z,95811.41
2023-03-25T22:19:28.511Z,95809.16
2023-03-25T22:21:54.980Z,95806.84
2023-03-25T22:24:21.530Z,95806.38
2023-03-25T22:26:48.003Z,95798.41
2023-03-25T22:29:14.441Z,95803.06
2023-03-25T22:31:40.948Z,95815.94
2023-03-25T22:34:11.421Z,95821.53
2023-03-25T22:36:38.823Z,95818.44
2023-03-25T22:39:06.388Z,95812.19
2023-03-25T22:41:33.052Z,95804.66
2023-03-25T22:43:59.682Z,95811.16
2023-03-25T22:46:26.355Z,95810.84
2023-03-25T22:48:52.923Z,95813.56
2023-03-25T22:51:19.999Z,95809.97
2023-03-25T22:53:46.522Z,95817.97
2023-03-25T22:56:13.042Z,95818.94
2023-03-25T22:58:39.488Z,95825.44
2023-03-25T23:01:07.218Z,95819.09
2023-03-25T23:03:33.840Z,95812.84
2023-03-25T23:06:06.771Z,95815.94
2023-03-25T23:08:38.306Z,95825.72
2023-03-25T23:11:09.386Z,95824.25
2023-03-25T23:13:35.984Z,95825.88
2023-03-25T23:16:06.429Z,95823.13
2023-03-25T23:18:32.915Z,95820.72
2023-03-25T23:20:59.712Z,95828.44
2023-03-25T23:23:26.270Z,95822.34
2023-03-25T23:26:03.545Z,95831.72
2023-03-25T23:28:30.816Z,95817.97
2023-03-25T23:30:57.778Z,95810.41
2023-03-25T23:33:24.235Z,95812.72
2023-03-25T23:35:50.805Z,95819.47
2023-03-25T23:38:41.465Z,95819.03
2023-03-25T23:41:08.549Z,95821.75
2023-03-25T23:43:35.338Z,95823.50
2023-03-25T23:46:01.896Z,95814.00
2023-03-25T23:48:28.555Z,95817.88
2023-03-25T23:50:55.962Z,95823.66
2023-03-25T23:53:22.905Z,95818.50
2023-03-25T23:55:50.261Z,95817.75
2023-03-25T23:58:16.805Z,95821.97
